Terminal Aerodrome Forecast
Issued by NWS

Home | Current Version | Previous Version | Text Only | Print | Product List | Glossary On
Versions: 1 2 3 4 5 6 7 8 9 10 11 12 13 14 15 16 17
000
FTUS41 KGYX 192328
TAFLEB
TAF
KLEB 192328Z 2000/2024 33007KT P6SM BKN050 OVC100
      TEMPO 2000/2003 5SM -SHSN BKN025
     FM201400 33010G17KT P6SM BKN060=

USA.gov is the U.S. government's official web portal to all federal, state and local government web resources and services.